Terminal Aerodrome Forecast
Issued by NWS Wilmington, OH

Current Version | Previous Version | Graphics & Text | Print | Product List | Glossary On
Versions: 1 2 3 4 5 6 7 8 9 10 11 12 13 14 15 16 17 18 19 20 21 22 23 24 25 26 27 28
000
FTUS41 KILN 191400 AAA
TAFDAY
TAF AMD
KDAY 191403Z 1914/2012 13006KT P6SM VCSH SCT006 BKN018
      TEMPO 1914/1916 BKN010
     FM191800 11006KT P6SM VCSH OVC025
      TEMPO 1919/1923 -SHRA OVC015
     FM200100 11003KT P6SM VCSH OVC018=

USA.gov is the U.S. government's official web portal to all federal, state and local government web resources and services.